Decoded Metar for LFGA (COLMAR in FRANCE) (IATA:CMR) | Meteo·Mobile Aviation Weather
aviador You're here:

LFGA Decoded Metar

COLMAR in FRANCE
Report Time2019-03-22 14:30:00
UTC Time2019-03-22 14:40:33
Flight Rules vfr VFR
Wind110° at 03 kt
W.Decomp.*RWY 19: 0.5 kt HW 3 kt LCW
W.Rank110° ranks 36
Current wind is below 110° avg. (4.1)
Visibility9999 m
Phenomena:N/A
Clouds:N/A
Expected CloudBase > 7,200 ft AGL from Temp-Dew spread
CeilingNone
Temp17°C
Dew Point-1°C (30% RH)
AAT13.8°C
QNH1028 hPa
Raw Report
METAR LFGA 221430Z AUTO 11003KT 060V230 CAVOK 17/M01 Q1028=

Extra information for LFGA:More info

Metar Taf Metar & Taf Last 4 Metars F.Rules Stats Wind Profile Meteogram Temp Stats Airport Information Weather charts Add Link Nearby VenuesMetar ALERT Operation Metar Decoded Social comments